Aérodrome :
LOGIN :

S'inscrire | Disclaimer

   EN    FR    IT 

 










Légende :    VFR   VFR Marginal   IFR   IFR Intensif   IFR Très Intensif
Visi : 
Plafond : 
>= 8 km
>= 3000ft
5 à 8 km
1000 à 3000 ft
1500m à 5 km
500 à 1000 ft
800 à 1500m
200 à 500 ft
< 800m
< 200 ft
Symboles :   Orages  Brouillard  Fortes neiges  Fortes précipitations  Vent > 20 kt
SIGMETs :   Divers  Orages  Givrage  Turbulence  Onde Orograph.  Cendres Volcan.






- Altitude de l'aérodrome : 375 ft
- Code IATA : MST


EHBK - Maastricht Aachen

DERNIER METAR :
  • 090925Z AUTO 21013KT 9999 OVC015 03/01 Q1004 TEMPO -RADZ BKN014

METARs EXPIRÉS :
  • 090855Z AUTO 20013KT 180V240 9999 FEW017/// OVC021/// 03/01 Q1004 TEMPO BKN014
  • 090825Z AUTO 20012KT 150V230 9999 BKN011 OVC015 03/01 Q1004 TEMPO BKN016
  • 090755Z AUTO 19010KT 170V230 9999 OVC016 02/00 Q1004 TEMPO BKN014
  • 090725Z AUTO 19012KT 9999 SCT033 02/00 Q1004 NOSIG
  • 090655Z AUTO 19012KT 9999 NCD 01/M00 Q1004 NOSIG

TAF TAF EHBK
Valide du 09 à 06h jusqu'au 10 à 12h UTC


090512Z 0906/1012 20010KT CAVOK
PROB30
TEMPO 0909/0918 6000 RADZ BKN014
BECMG 1000/1003 16009KT
BECMG 1006/1009 7000 -RA BKN014
TEMPO 1009/1012 2500 RASN BKN006



MET'MAP, la Météo Aéronautique d'un coup d'oeil ! - Copyright ORBIFLY Décembre 2007 - Disclaimer

ORBIFLY MET'MAP TEAM :

Programmation & Développement : Alexandra Zaïnal
Sur une idée originale de : Baudouin d'Aumeries
Assistance à la programmation : Marc-Olivier Méhu
Soutien technique & logistique : Manuel Goepfert

Contact : metmap@orbifly.com




SOURCES & CREDITS :

   NOAA